createdAt,value
2022-08-19T00:01:41.210Z,21.77
2022-08-19T00:04:09.079Z,21.70
2022-08-19T00:06:36.510Z,21.67
2022-08-19T00:09:04.643Z,21.68
2022-08-19T00:11:31.071Z,21.61
2022-08-19T00:13:57.635Z,21.56
2022-08-19T00:16:26.699Z,21.56
2022-08-19T00:18:54.241Z,21.69
2022-08-19T00:21:20.546Z,21.62
2022-08-19T00:23:47.070Z,21.59
2022-08-19T00:26:13.402Z,21.58
2022-08-19T00:28:39.768Z,21.52
2022-08-19T00:31:06.924Z,21.48
2022-08-19T00:33:33.800Z,21.54
2022-08-19T00:36:00.568Z,21.44
2022-08-19T00:38:37.410Z,21.42
2022-08-19T00:41:05.923Z,21.31
2022-08-19T00:43:32.633Z,21.35
2022-08-19T00:45:58.948Z,21.34
2022-08-19T00:48:25.307Z,21.34
2022-08-19T00:50:53.975Z,21.29
2022-08-19T00:53:22.699Z,21.26
2022-08-19T00:55:51.397Z,21.17
2022-08-19T00:58:20.370Z,21.07
2022-08-19T01:00:47.538Z,20.98
2022-08-19T01:03:16.380Z,21.06
2022-08-19T01:05:46.218Z,20.83
2022-08-19T01:08:12.846Z,20.90
2022-08-19T01:10:50.600Z,20.87
2022-08-19T01:13:18.171Z,20.78
2022-08-19T01:15:46.797Z,20.76
2022-08-19T01:18:15.155Z,20.79
2022-08-19T01:20:42.262Z,20.69
2022-08-19T01:23:08.987Z,20.63
2022-08-19T01:25:46.563Z,20.73
2022-08-19T01:28:16.744Z,20.69
2022-08-19T01:30:51.180Z,20.66
2022-08-19T01:33:18.471Z,20.58
2022-08-19T01:35:44.781Z,20.69
2022-08-19T01:38:19.688Z,20.66
2022-08-19T01:40:46.063Z,20.74
2022-08-19T01:43:12.379Z,20.73
2022-08-19T01:45:41.142Z,20.77
2022-08-19T01:48:07.700Z,20.73
2022-08-19T01:50:34.736Z,20.67
2022-08-19T01:53:06.900Z,20.61
2022-08-19T01:55:35.426Z,20.65
2022-08-19T01:58:08.251Z,20.73
2022-08-19T02:00:34.875Z,20.71
2022-08-19T02:03:02.059Z,20.68
2022-08-19T02:05:30.159Z,20.67
2022-08-19T02:07:57.644Z,20.58
2022-08-19T02:10:24.192Z,20.57
2022-08-19T02:12:50.532Z,20.50
2022-08-19T02:15:17.390Z,20.62
2022-08-19T02:17:43.961Z,20.51
2022-08-19T02:20:10.738Z,20.56
2022-08-19T02:22:37.067Z,20.60
2022-08-19T02:25:05.810Z,20.58
2022-08-19T02:27:32.165Z,20.55
2022-08-19T02:29:58.592Z,20.59
2022-08-19T02:32:24.886Z,20.67
2022-08-19T02:34:51.304Z,20.63
2022-08-19T02:37:40.828Z,20.65
2022-08-19T02:40:12.668Z,20.63
2022-08-19T02:42:39.349Z,20.62
2022-08-19T02:45:06.532Z,20.55
2022-08-19T02:47:33.290Z,20.52
2022-08-19T02:49:59.685Z,20.51
2022-08-19T02:52:26.437Z,20.45
2022-08-19T02:54:52.818Z,20.41
2022-08-19T02:57:19.126Z,20.39
2022-08-19T02:59:45.433Z,20.40
2022-08-19T03:02:11.740Z,20.42
2022-08-19T03:04:38.083Z,20.43
2022-08-19T03:07:10.868Z,20.40
2022-08-19T03:09:38.508Z,20.41
2022-08-19T03:12:05.448Z,20.37
2022-08-19T03:14:32.634Z,20.40
2022-08-19T03:16:59.201Z,20.43
2022-08-19T03:19:25.556Z,20.47
2022-08-19T03:21:52.434Z,20.44
2022-08-19T03:24:19.718Z,20.45
2022-08-19T03:26:47.694Z,20.52
2022-08-19T03:29:15.045Z,20.48
2022-08-19T03:31:57.435Z,20.47
2022-08-19T03:34:29.469Z,20.45
2022-08-19T03:36:57.507Z,20.53
2022-08-19T03:39:24.919Z,20.49
2022-08-19T03:42:38.704Z,20.46
2022-08-19T03:44:38.896Z,20.55
2022-08-19T03:47:05.379Z,20.58
2022-08-19T03:49:33.664Z,20.61
2022-08-19T03:52:03.365Z,20.64
2022-08-19T03:54:29.704Z,20.67
2022-08-19T03:56:56.893Z,20.67
2022-08-19T03:59:26.808Z,20.64
2022-08-19T04:01:54.417Z,20.58
2022-08-19T04:04:21.023Z,20.58
2022-08-19T04:06:48.118Z,20.63
2022-08-19T04:09:14.484Z,20.71
2022-08-19T04:11:44.461Z,20.66
2022-08-19T04:14:12.879Z,20.64
2022-08-19T04:16:39.325Z,20.69
2022-08-19T04:19:06.458Z,20.72
2022-08-19T04:21:33.317Z,20.67
2022-08-19T04:24:00.015Z,20.77
2022-08-19T04:26:28.755Z,20.73
2022-08-19T04:28:56.533Z,20.80
2022-08-19T04:31:27.017Z,20.73
2022-08-19T04:33:55.150Z,20.68
2022-08-19T04:36:23.030Z,20.68
2022-08-19T04:38:49.968Z,20.61
2022-08-19T04:41:35.728Z,20.63
2022-08-19T04:44:04.592Z,20.64
2022-08-19T04:46:39.795Z,20.56
2022-08-19T04:49:10.496Z,20.56
2022-08-19T04:51:41.598Z,20.60
2022-08-19T04:54:07.926Z,20.55
2022-08-19T04:56:34.239Z,20.59
2022-08-19T04:59:04.426Z,20.56
2022-08-19T05:01:33.225Z,20.55
2022-08-19T05:04:05.517Z,20.45
2022-08-19T05:06:34.353Z,20.38
2022-08-19T05:09:01.490Z,20.36
2022-08-19T05:11:33.762Z,20.40
2022-08-19T05:14:00.181Z,20.38
2022-08-19T05:16:27.609Z,20.38
2022-08-19T05:19:12.983Z,20.41
2022-08-19T05:21:59.455Z,20.42
2022-08-19T05:24:26.315Z,20.42
2022-08-19T05:26:57.421Z,20.43
2022-08-19T05:29:24.933Z,20.47
2022-08-19T05:31:53.024Z,20.45
2022-08-19T05:34:22.812Z,20.41
2022-08-19T05:36:49.996Z,20.37
2022-08-19T05:39:18.311Z,20.39
2022-08-19T05:41:45.179Z,20.40
2022-08-19T05:44:11.534Z,20.41
2022-08-19T05:46:38.974Z,20.42
2022-08-19T05:49:08.617Z,20.50
2022-08-19T05:51:38.024Z,20.35
2022-08-19T05:54:05.328Z,20.38
2022-08-19T05:56:32.127Z,20.34
2022-08-19T05:58:59.528Z,20.33
2022-08-19T06:01:26.509Z,20.28
2022-08-19T06:03:52.882Z,20.23
2022-08-19T06:06:19.749Z,20.27
2022-08-19T06:08:51.058Z,20.27
2022-08-19T06:11:37.453Z,20.16
2022-08-19T06:14:05.303Z,20.17
2022-08-19T06:16:34.893Z,20.18
2022-08-19T06:19:01.817Z,20.17
2022-08-19T06:21:29.131Z,20.14
2022-08-19T06:23:56.352Z,20.12
2022-08-19T06:26:23.538Z,20.12
2022-08-19T06:28:49.896Z,20.12
2022-08-19T06:31:17.118Z,20.14
2022-08-19T06:33:44.224Z,20.05
2022-08-19T06:36:17.890Z,20.03
2022-08-19T06:38:44.521Z,20.04
2022-08-19T06:41:13.003Z,19.99
2022-08-19T06:43:42.327Z,20.03
2022-08-19T06:46:12.983Z,20.03
2022-08-19T06:48:45.089Z,19.93
2022-08-19T06:51:12.634Z,19.93
2022-08-19T06:53:40.412Z,20.00
2022-08-19T06:56:06.945Z,19.94
2022-08-19T06:58:33.293Z,19.87
2022-08-19T07:01:05.747Z,19.87
2022-08-19T07:03:37.347Z,19.90
2022-08-19T07:06:07.155Z,19.86
2022-08-19T07:11:09.509Z,19.83
2022-08-19T07:13:37.985Z,19.87
2022-08-19T07:16:05.853Z,19.81
2022-08-19T07:18:32.215Z,19.85
2022-08-19T07:21:13.359Z,19.80
2022-08-19T07:23:40.140Z,19.84
2022-08-19T07:26:10.274Z,19.76
2022-08-19T07:28:40.044Z,19.76
2022-08-19T07:31:23.066Z,19.77
2022-08-19T07:33:51.386Z,19.80
2022-08-19T07:36:21.536Z,19.83
2022-08-19T07:38:49.884Z,19.73
2022-08-19T07:41:18.275Z,19.72
2022-08-19T07:43:44.795Z,19.73
2022-08-19T07:46:13.588Z,19.72
2022-08-19T07:48:41.459Z,19.70
2022-08-19T07:51:09.148Z,19.76
2022-08-19T07:53:39.655Z,19.78
2022-08-19T07:56:06.755Z,19.83
2022-08-19T07:58:34.455Z,19.83
2022-08-19T08:01:01.239Z,19.80
2022-08-19T08:03:46.900Z,19.84
2022-08-19T08:06:32.963Z,19.82
2022-08-19T08:09:11.812Z,19.77
2022-08-19T08:11:42.764Z,19.77
2022-08-19T08:14:29.450Z,19.79
2022-08-19T08:16:56.957Z,19.84
2022-08-19T08:19:26.406Z,19.91
2022-08-19T08:21:54.310Z,19.88
2022-08-19T08:24:21.343Z,19.88
2022-08-19T08:26:52.171Z,19.85
2022-08-19T08:29:20.329Z,19.84
2022-08-19T08:31:47.341Z,19.82
2022-08-19T08:34:23.495Z,19.81
2022-08-19T08:36:51.877Z,19.84
2022-08-19T08:39:19.829Z,19.83
2022-08-19T08:41:46.126Z,19.79
2022-08-19T08:44:17.351Z,19.82
2022-08-19T08:46:52.751Z,19.86
2022-08-19T08:49:31.707Z,19.88
2022-08-19T08:52:06.023Z,19.92
2022-08-19T08:54:40.277Z,19.95
2022-08-19T08:57:11.359Z,19.95
2022-08-19T08:59:40.088Z,19.95
2022-08-19T09:02:06.409Z,19.87
2022-08-19T09:04:32.874Z,19.91
2022-08-19T09:07:18.610Z,19.95
2022-08-19T09:10:04.929Z,19.93
2022-08-19T09:12:37.276Z,20.01
2022-08-19T09:15:06.325Z,20.09
2022-08-19T09:17:34.596Z,20.09
2022-08-19T09:20:11.836Z,20.14
2022-08-19T09:22:40.361Z,20.13
2022-08-19T09:25:09.332Z,20.14
2022-08-19T09:27:43.037Z,20.23
2022-08-19T09:30:22.270Z,20.25
2022-08-19T09:32:52.968Z,20.18
2022-08-19T09:35:20.745Z,20.43
2022-08-19T09:37:47.074Z,20.39
2022-08-19T09:40:13.507Z,20.46
2022-08-19T09:42:49.803Z,20.42
2022-08-19T09:45:18.278Z,20.29
2022-08-19T09:47:44.638Z,20.36
2022-08-19T09:50:16.593Z,20.48
2022-08-19T09:52:43.326Z,20.42
2022-08-19T09:55:21.720Z,20.30
2022-08-19T09:57:50.428Z,20.30
2022-08-19T10:00:16.863Z,20.30
2022-08-19T10:02:43.174Z,20.20
2022-08-19T10:05:30.817Z,20.30
2022-08-19T10:07:57.757Z,20.35
2022-08-19T10:10:25.036Z,20.39
2022-08-19T10:12:51.457Z,20.47
2022-08-19T10:15:28.999Z,20.41
2022-08-19T10:17:56.381Z,20.47
2022-08-19T10:20:23.656Z,20.58
2022-08-19T10:22:51.939Z,20.56
2022-08-19T10:25:19.822Z,20.58
2022-08-19T10:27:51.149Z,20.42
2022-08-19T10:30:18.096Z,20.53
2022-08-19T10:32:46.475Z,20.55
2022-08-19T10:35:13.510Z,20.50
2022-08-19T10:37:57.119Z,20.58
2022-08-19T10:40:24.079Z,20.58
2022-08-19T10:42:50.629Z,20.52
2022-08-19T10:45:17.614Z,20.54
2022-08-19T10:47:43.948Z,20.46
2022-08-19T10:50:29.025Z,20.48
2022-08-19T10:52:56.492Z,20.65
2022-08-19T10:55:42.481Z,20.83
2022-08-19T10:58:15.779Z,20.87
2022-08-19T11:00:43.901Z,20.88
2022-08-19T11:03:10.522Z,20.81
2022-08-19T11:05:39.769Z,20.83
2022-08-19T11:08:07.179Z,20.82
2022-08-19T11:10:50.273Z,20.86
2022-08-19T11:13:16.960Z,20.93
2022-08-19T11:15:44.070Z,21.01
2022-08-19T11:18:13.198Z,21.04
2022-08-19T11:20:39.822Z,21.08
2022-08-19T11:23:06.596Z,21.15
2022-08-19T11:25:32.901Z,21.13
2022-08-19T11:27:59.190Z,21.17
2022-08-19T11:30:25.712Z,21.33
2022-08-19T11:32:52.089Z,21.32
2022-08-19T11:35:21.062Z,21.22
2022-08-19T11:37:47.376Z,21.25
2022-08-19T11:40:13.786Z,21.30
2022-08-19T11:42:58.752Z,21.32
2022-08-19T11:45:26.020Z,21.34
2022-08-19T11:47:52.551Z,21.37
2022-08-19T11:50:19.027Z,21.36
2022-08-19T11:52:45.995Z,21.36
2022-08-19T11:55:13.071Z,21.45
2022-08-19T11:57:41.809Z,21.33
2022-08-19T12:00:10.011Z,21.28
2022-08-19T12:02:36.398Z,21.32
2022-08-19T12:05:03.979Z,21.18
2022-08-19T12:07:34.117Z,21.12
2022-08-19T12:10:00.985Z,21.09
2022-08-19T12:12:28.109Z,21.09
2022-08-19T12:14:57.578Z,21.06
2022-08-19T12:17:24.676Z,21.04
2022-08-19T12:19:50.991Z,21.16
2022-08-19T12:22:17.308Z,21.20
2022-08-19T12:24:44.228Z,21.25
2022-08-19T12:27:12.808Z,21.30
2022-08-19T12:29:39.433Z,21.43
2022-08-19T12:32:05.762Z,21.46
2022-08-19T12:34:32.667Z,21.39
2022-08-19T12:36:59.805Z,21.35
2022-08-19T12:39:26.467Z,21.54
2022-08-19T12:41:55.034Z,21.59
2022-08-19T12:44:29.542Z,21.54
2022-08-19T12:46:58.798Z,21.36
2022-08-19T12:49:52.150Z,21.38
2022-08-19T12:52:12.166Z,21.35
2022-08-19T12:54:40.735Z,21.31
2022-08-19T12:57:08.671Z,21.42
2022-08-19T12:59:37.206Z,21.29
2022-08-19T13:02:05.615Z,21.35
2022-08-19T13:04:31.911Z,21.46
2022-08-19T13:06:58.554Z,21.64
2022-08-19T13:09:25.006Z,21.69
2022-08-19T13:11:51.367Z,21.48
2022-08-19T13:14:18.024Z,21.24
2022-08-19T13:16:44.326Z,21.20
2022-08-19T13:19:11.703Z,21.22
2022-08-19T13:21:37.988Z,21.24
2022-08-19T13:24:04.413Z,21.15
2022-08-19T13:26:30.783Z,21.06
2022-08-19T13:29:15.755Z,20.86
2022-08-19T13:32:01.014Z,20.82
2022-08-19T13:34:36.043Z,20.86
2022-08-19T13:37:06.825Z,20.92
2022-08-19T13:39:33.830Z,21.09
2022-08-19T13:42:01.639Z,21.11
2022-08-19T13:44:30.498Z,21.21
2022-08-19T13:47:07.831Z,21.15
2022-08-19T13:49:36.860Z,21.22
2022-08-19T13:52:04.245Z,21.32
2022-08-19T13:54:30.715Z,21.44
2022-08-19T13:56:57.201Z,21.44
2022-08-19T13:59:23.536Z,21.50
2022-08-19T14:01:50.926Z,21.52
2022-08-19T14:04:17.236Z,21.44
2022-08-19T14:06:43.602Z,21.39
2022-08-19T14:09:09.936Z,21.34
2022-08-19T14:11:36.275Z,21.30
2022-08-19T14:14:02.597Z,21.31
2022-08-19T14:16:28.966Z,21.40
2022-08-19T14:18:55.821Z,21.43
2022-08-19T14:21:24.548Z,21.35
2022-08-19T14:23:50.888Z,21.47
2022-08-19T14:26:19.527Z,21.24
2022-08-19T14:28:46.057Z,21.20
2022-08-19T14:31:13.788Z,21.17
2022-08-19T14:33:41.391Z,21.22
2022-08-19T14:36:07.845Z,21.11
2022-08-19T14:38:34.300Z,21.22
2022-08-19T14:41:08.643Z,21.14
2022-08-19T14:43:35.329Z,21.15
2022-08-19T14:46:01.632Z,21.14
2022-08-19T14:48:29.139Z,21.17
2022-08-19T14:50:55.535Z,21.04
2022-08-19T14:53:22.589Z,20.94
2022-08-19T14:55:48.894Z,20.86
2022-08-19T14:58:28.607Z,20.87
2022-08-19T15:00:57.183Z,20.93
2022-08-19T15:03:23.497Z,20.97
2022-08-19T15:05:49.872Z,21.01
2022-08-19T15:08:16.227Z,20.97
2022-08-19T15:10:42.528Z,20.93
2022-08-19T15:13:10.342Z,20.78
2022-08-19T15:15:36.676Z,20.56
2022-08-19T15:18:03.689Z,20.66
2022-08-19T15:20:30.445Z,20.63
2022-08-19T15:22:56.770Z,20.62
2022-08-19T15:25:23.203Z,20.70
2022-08-19T15:27:49.521Z,20.50
2022-08-19T15:30:19.775Z,20.55
2022-08-19T15:32:48.968Z,20.55
2022-08-19T15:35:15.609Z,20.58
2022-08-19T15:37:41.963Z,20.70
2022-08-19T15:40:09.570Z,20.80
2022-08-19T15:42:37.471Z,20.72
2022-08-19T15:45:07.672Z,20.78
2022-08-19T15:47:34.701Z,20.59
2022-08-19T15:50:35.812Z,20.53
2022-08-19T15:53:07.011Z,20.63
2022-08-19T15:55:35.015Z,20.71
2022-08-19T15:58:28.585Z,20.78
2022-08-19T16:01:20.757Z,20.87
2022-08-19T16:04:13.834Z,20.78
2022-08-19T16:06:41.652Z,20.71
2022-08-19T16:09:08.350Z,20.58
2022-08-19T16:11:39.342Z,20.56
2022-08-19T16:14:08.405Z,20.57
2022-08-19T16:16:35.917Z,20.56
2022-08-19T16:19:03.907Z,20.62
2022-08-19T16:21:33.239Z,20.61
2022-08-19T16:24:04.982Z,20.61
2022-08-19T16:26:31.728Z,20.57
2022-08-19T16:28:59.144Z,20.56
2022-08-19T16:31:26.739Z,20.68
2022-08-19T16:33:53.189Z,20.59
2022-08-19T16:36:19.745Z,20.64
2022-08-19T16:38:48.191Z,20.63
2022-08-19T16:41:14.930Z,20.65
2022-08-19T16:43:41.765Z,20.63
2022-08-19T16:46:08.824Z,20.52
2022-08-19T16:48:35.908Z,20.52
2022-08-19T16:51:05.331Z,20.41
2022-08-19T16:53:32.073Z,20.36
2022-08-19T16:55:59.153Z,20.51
2022-08-19T16:58:28.158Z,20.50
2022-08-19T17:00:57.815Z,20.42
2022-08-19T17:03:35.839Z,20.47
2022-08-19T17:06:08.067Z,20.49
2022-08-19T17:08:48.689Z,20.46
2022-08-19T17:11:18.561Z,20.38
2022-08-19T17:13:47.775Z,20.44
2022-08-19T17:16:15.291Z,20.42
2022-08-19T17:18:41.582Z,20.39
2022-08-19T17:21:07.889Z,20.41
2022-08-19T17:23:43.208Z,20.39
2022-08-19T17:26:14.122Z,20.44
2022-08-19T17:28:45.231Z,20.57
2022-08-19T17:31:11.988Z,20.51
2022-08-19T17:33:41.388Z,20.44
2022-08-19T17:36:08.333Z,20.45
2022-08-19T17:38:35.856Z,20.39
2022-08-19T17:41:05.870Z,20.40
2022-08-19T17:43:34.599Z,20.38
2022-08-19T17:46:04.593Z,20.44
2022-08-19T17:48:32.873Z,20.52
2022-08-19T17:51:00.425Z,20.43
2022-08-19T17:53:26.754Z,20.39
2022-08-19T17:55:53.209Z,20.47
2022-08-19T17:58:20.473Z,20.32
2022-08-19T18:00:54.030Z,20.27
2022-08-19T18:03:20.738Z,20.28
2022-08-19T18:05:47.058Z,20.25
2022-08-19T18:08:13.479Z,20.21
2022-08-19T18:10:40.918Z,20.27
2022-08-19T18:13:17.117Z,20.22
2022-08-19T18:15:44.544Z,20.26
2022-08-19T18:18:15.203Z,20.20
2022-08-19T18:20:42.501Z,20.25
2022-08-19T18:23:41.207Z,20.20
2022-08-19T18:25:55.668Z,20.24
2022-08-19T18:28:23.740Z,20.19
2022-08-19T18:30:50.051Z,20.34
2022-08-19T18:33:16.432Z,20.29
2022-08-19T18:35:46.016Z,20.20
2022-08-19T18:38:35.137Z,20.23
2022-08-19T18:41:20.648Z,20.24
2022-08-19T18:44:05.949Z,20.19
2022-08-19T18:46:50.765Z,20.17
2022-08-19T18:49:35.615Z,20.27
2022-08-19T18:52:03.652Z,20.21
2022-08-19T18:54:30.285Z,20.24
2022-08-19T18:56:56.729Z,20.26
2022-08-19T18:59:24.310Z,20.23
2022-08-19T19:01:52.263Z,20.21
2022-08-19T19:04:20.566Z,20.18
2022-08-19T19:06:46.997Z,20.24
2022-08-19T19:09:14.888Z,20.18
2022-08-19T19:11:44.016Z,20.16
2022-08-19T19:14:19.201Z,20.25
2022-08-19T19:16:58.952Z,20.21
2022-08-19T19:19:26.079Z,20.25
2022-08-19T19:21:53.122Z,20.27
2022-08-19T19:24:21.668Z,20.25
2022-08-19T19:26:49.357Z,20.28
2022-08-19T19:29:16.346Z,20.19
2022-08-19T19:31:43.699Z,20.17
2022-08-19T19:34:28.860Z,20.17
2022-08-19T19:36:55.836Z,20.12
2022-08-19T19:39:30.596Z,20.15
2022-08-19T19:42:12.541Z,20.25
2022-08-19T19:44:48.769Z,20.17
2022-08-19T19:47:15.731Z,20.18
2022-08-19T19:50:03.963Z,20.16
2022-08-19T19:52:28.952Z,20.12
2022-08-19T19:54:56.772Z,20.10
2022-08-19T19:57:26.719Z,20.14
2022-08-19T19:59:54.284Z,20.08
2022-08-19T20:02:22.030Z,20.02
2022-08-19T20:04:48.815Z,20.11
2022-08-19T20:07:15.312Z,19.97
2022-08-19T20:09:58.856Z,19.94
2022-08-19T20:12:25.919Z,19.83
2022-08-19T20:14:52.256Z,19.78
2022-08-19T20:17:20.397Z,19.75
2022-08-19T20:19:47.884Z,19.70
2022-08-19T20:22:14.432Z,19.69
2022-08-19T20:24:42.556Z,19.80
2022-08-19T20:27:10.687Z,19.76
2022-08-19T20:29:38.713Z,19.75
2022-08-19T20:32:07.403Z,19.82
2022-08-19T20:34:33.849Z,19.80
2022-08-19T20:37:00.189Z,19.82
2022-08-19T20:39:26.514Z,19.83
2022-08-19T20:41:53.051Z,19.72
2022-08-19T20:44:19.832Z,19.67
2022-08-19T20:46:55.304Z,19.65
2022-08-19T20:49:23.053Z,19.62
2022-08-19T20:51:54.541Z,19.72
2022-08-19T20:54:21.495Z,19.72
2022-08-19T20:56:47.820Z,19.67
2022-08-19T20:59:14.134Z,19.64
2022-08-19T21:01:40.476Z,19.62
2022-08-19T21:04:06.854Z,19.61
2022-08-19T21:06:33.223Z,19.60
2022-08-19T21:08:59.548Z,19.57
2022-08-19T21:11:25.903Z,19.54
2022-08-19T21:13:52.253Z,19.55
2022-08-19T21:16:18.555Z,19.52
2022-08-19T21:18:44.903Z,19.49
2022-08-19T21:21:11.212Z,19.46
2022-08-19T21:23:37.558Z,19.44
2022-08-19T21:26:03.879Z,19.44
2022-08-19T21:28:35.960Z,19.40
2022-08-19T21:31:03.991Z,19.41
2022-08-19T21:33:31.983Z,19.38
2022-08-19T21:35:58.736Z,19.42
2022-08-19T21:38:25.096Z,19.43
2022-08-19T21:40:51.593Z,19.49
2022-08-19T21:43:18.109Z,19.46
2022-08-19T21:45:45.518Z,19.41
2022-08-19T21:48:12.573Z,19.40
2022-08-19T21:50:38.885Z,19.44
2022-08-19T21:53:05.228Z,19.45
2022-08-19T21:55:31.553Z,19.46
2022-08-19T21:58:00.114Z,19.45
2022-08-19T22:00:28.294Z,19.45
2022-08-19T22:02:58.725Z,19.43
2022-08-19T22:05:25.776Z,19.44
2022-08-19T22:07:53.652Z,19.46
2022-08-19T22:10:20.353Z,19.42
2022-08-19T22:12:51.445Z,19.48
2022-08-19T22:15:20.619Z,19.46
2022-08-19T22:17:47.419Z,19.50
2022-08-19T22:20:15.142Z,19.51
2022-08-19T22:22:49.331Z,19.54
2022-08-19T22:25:31.642Z,19.57
2022-08-19T22:28:00.471Z,19.57
2022-08-19T22:30:28.048Z,19.55
2022-08-19T22:33:01.064Z,19.56
2022-08-19T22:35:31.220Z,19.58
2022-08-19T22:37:58.903Z,19.63
2022-08-19T22:40:26.206Z,19.63
2022-08-19T22:43:00.148Z,19.60
2022-08-19T22:45:26.954Z,19.58
2022-08-19T22:47:53.293Z,19.61
2022-08-19T22:50:19.631Z,19.65
2022-08-19T22:52:51.994Z,19.62
2022-08-19T22:55:18.834Z,19.57
2022-08-19T22:57:45.171Z,19.53
2022-08-19T23:00:13.237Z,19.55
2022-08-19T23:02:52.162Z,19.58
2022-08-19T23:05:21.906Z,19.58
2022-08-19T23:07:52.395Z,19.56
2022-08-19T23:10:27.397Z,19.53
2022-08-19T23:12:56.889Z,19.58
2022-08-19T23:15:25.525Z,19.58
2022-08-19T23:17:52.520Z,19.56
2022-08-19T23:20:19.276Z,19.51
2022-08-19T23:22:49.576Z,19.48
2022-08-19T23:25:17.241Z,19.49
2022-08-19T23:28:03.060Z,19.46
2022-08-19T23:30:31.208Z,19.45
2022-08-19T23:33:00.413Z,19.45
2022-08-19T23:35:31.712Z,19.47
2022-08-19T23:37:58.361Z,19.49
2022-08-19T23:40:24.806Z,19.46
2022-08-19T23:42:51.244Z,19.55
2022-08-19T23:45:23.710Z,19.50
2022-08-19T23:47:51.020Z,19.46
2022-08-19T23:50:19.892Z,19.43
2022-08-19T23:52:57.024Z,19.38
2022-08-19T23:55:27.500Z,19.33
2022-08-19T23:57:53.981Z,19.40
